createdAt,value
2023-02-25T00:00:19.526Z,97143.72
2023-02-25T00:05:24.145Z,97135.38
2023-02-25T00:10:27.056Z,97137.84
2023-02-25T00:15:29.966Z,97138.44
2023-02-25T00:20:34.259Z,97133.63
2023-02-25T00:25:37.547Z,97134.25
2023-02-25T00:30:42.488Z,97136.03
2023-02-25T00:35:50.002Z,97131.81
2023-02-25T00:40:52.956Z,97127.50
2023-02-25T00:45:55.857Z,97122.22
2023-02-25T00:51:06.188Z,97121.25
2023-02-25T00:56:11.397Z,97119.69
2023-02-25T01:01:19.983Z,97116.38
2023-02-25T01:06:25.217Z,97105.28
2023-02-25T01:11:30.650Z,97114.44
2023-02-25T01:16:35.086Z,97116.16
2023-02-25T01:21:43.820Z,97107.66
2023-02-25T01:26:48.092Z,97103.22
2023-02-25T01:31:53.662Z,97095.81
2023-02-25T01:36:58.461Z,97082.25
2023-02-25T01:42:05.475Z,97081.41
2023-02-25T01:47:10.157Z,97092.81
2023-02-25T01:52:19.770Z,97098.03
2023-02-25T01:57:23.742Z,97098.25
2023-02-25T02:02:29.780Z,97093.66
2023-02-25T02:07:34.215Z,97079.88
2023-02-25T02:12:40.031Z,97081.19
2023-02-25T02:17:47.548Z,97093.28
2023-02-25T02:23:00.847Z,97084.13
2023-02-25T02:28:37.271Z,97073.00
2023-02-25T02:33:49.532Z,97091.69
2023-02-25T02:38:59.347Z,97081.16
2023-02-25T02:44:10.092Z,97068.97
2023-02-25T02:49:22.002Z,97073.00
2023-02-25T02:54:28.293Z,97070.34
2023-02-25T02:59:34.579Z,97074.31
2023-02-25T03:04:42.959Z,97069.00
2023-02-25T03:09:50.238Z,97062.25
2023-02-25T03:14:53.645Z,97071.78
2023-02-25T03:20:04.225Z,97072.97
2023-02-25T03:25:14.048Z,97061.44
2023-02-25T03:30:25.524Z,97070.41
2023-02-25T03:35:31.769Z,97071.44
2023-02-25T03:40:35.849Z,97074.75
2023-02-25T03:45:40.863Z,97088.56
2023-02-25T03:50:49.656Z,97090.34
2023-02-25T03:55:53.842Z,97096.31
2023-02-25T04:01:02.528Z,97089.63
2023-02-25T04:06:10.379Z,97088.63
2023-02-25T04:11:13.774Z,97107.75
2023-02-25T04:16:19.182Z,97093.38
2023-02-25T04:21:30.388Z,97103.28
2023-02-25T04:26:33.701Z,97128.34
2023-02-25T04:31:36.730Z,97137.22
2023-02-25T04:36:41.568Z,97140.84
2023-02-25T04:41:45.135Z,97158.00
2023-02-25T04:46:51.832Z,97159.19
2023-02-25T04:51:56.251Z,97166.00
2023-02-25T04:56:59.184Z,97170.41
2023-02-25T05:02:02.165Z,97171.00
2023-02-25T05:07:07.850Z,97163.66
2023-02-25T05:12:10.792Z,97164.66
2023-02-25T05:17:15.726Z,97174.41
2023-02-25T05:22:20.862Z,97183.94
2023-02-25T05:27:23.741Z,97180.34
2023-02-25T05:32:26.759Z,97182.53
2023-02-25T05:37:32.814Z,97191.84
2023-02-25T05:42:35.757Z,97185.28
2023-02-25T05:47:38.859Z,97191.88
2023-02-25T05:52:43.215Z,97210.53
2023-02-25T05:57:46.125Z,97217.91
2023-02-25T06:02:49.214Z,97225.63
2023-02-25T06:07:53.481Z,97232.97
2023-02-25T06:12:56.454Z,97235.38
2023-02-25T06:17:59.398Z,97246.31
2023-02-25T06:23:03.956Z,97246.91
2023-02-25T06:28:06.969Z,97254.81
2023-02-25T06:33:09.982Z,97266.56
2023-02-25T06:38:14.379Z,97279.84
2023-02-25T06:43:17.553Z,97283.22
2023-02-25T06:48:20.474Z,97291.81
2023-02-25T06:53:24.712Z,97296.41
2023-02-25T06:58:27.623Z,97301.94
2023-02-25T07:03:30.493Z,97314.66
2023-02-25T07:08:34.784Z,97311.41
2023-02-25T07:13:37.875Z,97320.41
2023-02-25T07:18:40.880Z,97332.53
2023-02-25T07:23:46.540Z,97327.75
2023-02-25T07:28:49.497Z,97326.19
2023-02-25T07:33:53.108Z,97346.28
2023-02-25T07:38:57.651Z,97345.06
2023-02-25T07:44:00.510Z,97350.81
2023-02-25T07:49:03.886Z,97352.22
2023-02-25T07:54:08.252Z,97353.41
2023-02-25T07:59:11.408Z,97356.81
2023-02-25T08:04:14.375Z,97362.31
2023-02-25T08:09:18.830Z,97368.72
2023-02-25T08:14:22.704Z,97368.91
2023-02-25T08:19:25.748Z,97373.34
2023-02-25T08:24:30.026Z,97354.06
2023-02-25T08:29:32.947Z,97359.63
2023-02-25T08:34:36.155Z,97365.19
2023-02-25T08:39:40.583Z,97380.50
2023-02-25T08:44:43.763Z,97398.59
2023-02-25T08:49:47.549Z,97385.84
2023-02-25T08:54:51.989Z,97397.91
2023-02-25T08:59:55.246Z,97404.78
2023-02-25T09:04:58.188Z,97417.03
2023-02-25T09:10:04.110Z,97418.81
2023-02-25T09:15:08.686Z,97431.38
2023-02-25T09:20:12.434Z,97439.88
2023-02-25T09:25:16.795Z,97447.31
2023-02-25T09:30:19.782Z,97451.72
2023-02-25T09:35:22.916Z,97461.66
2023-02-25T09:40:27.834Z,97480.22
2023-02-25T09:45:34.224Z,97472.78
2023-02-25T09:50:42.998Z,97477.56
2023-02-25T09:55:50.089Z,97483.75
2023-02-25T10:01:02.840Z,97492.09
2023-02-25T10:06:14.276Z,97499.72
2023-02-25T10:11:27.551Z,97514.00
2023-02-25T10:16:42.294Z,97510.56
2023-02-25T10:22:09.949Z,97518.06
2023-02-25T10:27:21.913Z,97527.81
2023-02-25T10:32:27.386Z,97528.13
2023-02-25T10:37:35.824Z,97532.13
2023-02-25T10:42:40.134Z,97542.38
2023-02-25T10:47:46.340Z,97534.06
2023-02-25T10:52:54.970Z,97551.22
2023-02-25T10:58:00.797Z,97546.94
2023-02-25T11:03:05.804Z,97562.38
2023-02-25T11:08:27.663Z,97567.50
2023-02-25T11:13:36.331Z,97566.50
2023-02-25T11:18:40.663Z,97566.91
2023-02-25T11:23:48.025Z,97575.34
2023-02-25T11:28:52.564Z,97578.38
2023-02-25T11:33:59.602Z,97569.91
2023-02-25T11:39:18.077Z,97571.47
2023-02-25T11:44:27.969Z,97572.50
2023-02-25T11:50:05.024Z,97576.75
2023-02-25T11:55:19.042Z,97580.81
2023-02-25T12:00:30.605Z,97596.63
2023-02-25T12:05:48.570Z,97593.56
2023-02-25T12:11:24.660Z,97598.81
2023-02-25T12:17:03.034Z,97605.72
2023-02-25T12:22:37.672Z,97602.19
2023-02-25T12:27:58.929Z,97611.06
2023-02-25T12:33:15.960Z,97621.50
2023-02-25T12:39:01.364Z,97620.69
2023-02-25T12:44:25.058Z,97624.41
2023-02-25T12:49:55.887Z,97617.84
2023-02-25T12:55:21.143Z,97628.25
2023-02-25T13:00:44.929Z,97636.47
2023-02-25T13:06:32.999Z,97628.81
2023-02-25T13:12:10.132Z,97635.03
2023-02-25T13:17:26.866Z,97640.59
2023-02-25T13:22:44.786Z,97648.53
2023-02-25T13:28:13.177Z,97645.28
2023-02-25T13:33:29.641Z,97645.00
2023-02-25T13:38:57.973Z,97651.94
2023-02-25T13:44:20.360Z,97671.91
2023-02-25T13:49:42.058Z,97666.94
2023-02-25T13:55:09.990Z,97665.44
2023-02-25T14:00:40.382Z,97684.03
2023-02-25T14:06:00.478Z,97679.31
2023-02-25T14:11:29.795Z,97685.56
2023-02-25T14:16:41.438Z,97704.34
2023-02-25T14:22:21.244Z,97711.19
2023-02-25T14:27:37.053Z,97719.19
2023-02-25T14:32:55.380Z,97709.84
2023-02-25T14:38:09.101Z,97725.75
2023-02-25T14:43:32.312Z,97731.94
2023-02-25T14:48:42.580Z,97754.94
2023-02-25T14:54:03.363Z,97756.81
2023-02-25T14:59:36.885Z,97768.44
2023-02-25T15:05:15.460Z,97766.50
2023-02-25T15:10:34.565Z,97783.75
2023-02-25T15:15:58.472Z,97792.72
2023-02-25T15:21:35.888Z,97791.03
2023-02-25T15:26:45.438Z,97778.84
2023-02-25T15:32:16.686Z,97787.75
2023-02-25T15:38:01.091Z,97803.84
2023-02-25T15:43:42.437Z,97821.72
2023-02-25T15:49:02.807Z,97820.91
2023-02-25T15:54:06.409Z,97831.41
2023-02-25T15:59:09.404Z,97837.34
2023-02-25T16:04:46.084Z,97857.59
2023-02-25T16:09:56.285Z,97878.19
2023-02-25T16:15:00.676Z,97875.28
2023-02-25T16:20:14.566Z,97898.44
2023-02-25T16:25:23.497Z,97902.66
2023-02-25T16:30:34.510Z,97909.72
2023-02-25T16:35:48.380Z,97915.97
2023-02-25T16:40:52.232Z,97918.28
2023-02-25T16:45:58.510Z,97937.34
2023-02-25T16:51:10.395Z,97946.25
2023-02-25T16:56:19.926Z,97954.59
2023-02-25T17:01:23.942Z,97954.16
2023-02-25T17:06:28.353Z,97973.50
2023-02-25T17:11:31.758Z,97979.72
2023-02-25T17:16:41.786Z,97992.34
2023-02-25T17:21:51.912Z,98006.16
2023-02-25T17:26:55.423Z,98005.84
2023-02-25T17:31:58.441Z,98030.22
2023-02-25T17:37:08.386Z,98026.84
2023-02-25T17:42:32.174Z,98034.72
2023-02-25T17:47:38.060Z,98033.75
2023-02-25T17:52:49.164Z,98042.78
2023-02-25T17:57:54.847Z,98039.56
2023-02-25T18:03:17.471Z,98058.03
2023-02-25T18:08:23.945Z,98050.16
2023-02-25T18:13:35.323Z,98057.56
2023-02-25T18:18:38.321Z,98055.78
2023-02-25T18:23:42.747Z,98066.16
2023-02-25T18:28:47.425Z,98072.19
2023-02-25T18:33:50.657Z,98074.91
2023-02-25T18:38:58.298Z,98076.53
2023-02-25T18:44:02.417Z,98084.38
2023-02-25T18:49:05.544Z,98086.50
2023-02-25T18:54:16.144Z,98091.63
2023-02-25T18:59:19.707Z,98099.84
2023-02-25T19:04:22.708Z,98110.97
2023-02-25T19:09:28.481Z,98125.63
2023-02-25T19:14:32.689Z,98117.25
2023-02-25T19:19:36.177Z,98127.84
2023-02-25T19:24:40.507Z,98142.50
2023-02-25T19:29:43.462Z,98134.78
2023-02-25T19:34:46.454Z,98163.41
2023-02-25T19:39:51.104Z,98155.06
2023-02-25T19:44:54.462Z,98164.50
2023-02-25T19:49:57.494Z,98177.38
2023-02-25T19:55:02.343Z,98180.47
2023-02-25T20:00:08.706Z,98182.72
2023-02-25T20:05:32.450Z,98196.84
2023-02-25T20:10:37.525Z,98189.59
2023-02-25T20:15:41.068Z,98202.63
2023-02-25T20:20:44.055Z,98211.75
2023-02-25T20:25:48.568Z,98215.97
2023-02-25T20:30:51.481Z,98223.47
2023-02-25T20:35:54.640Z,98242.75
2023-02-25T20:40:59.168Z,98242.56
2023-02-25T20:46:02.344Z,98251.41
2023-02-25T20:51:05.824Z,98248.81
2023-02-25T20:56:12.980Z,98256.50
2023-02-25T21:01:15.963Z,98265.88
2023-02-25T21:06:19.728Z,98266.84
2023-02-25T21:11:25.618Z,98274.72
2023-02-25T21:16:28.775Z,98272.59
2023-02-25T21:21:36.948Z,98283.78
2023-02-25T21:26:41.244Z,98286.81
2023-02-25T21:31:45.616Z,98291.34
2023-02-25T21:36:48.666Z,98295.19
2023-02-25T21:41:53.001Z,98304.06
2023-02-25T21:46:58.059Z,98305.63
2023-02-25T21:52:01.511Z,98308.22
2023-02-25T21:57:06.546Z,98304.78
2023-02-25T22:02:11.309Z,98311.28
2023-02-25T22:07:14.442Z,98310.00
2023-02-25T22:12:18.688Z,98315.16
2023-02-25T22:17:21.540Z,98327.94
2023-02-25T22:22:24.443Z,98331.44
2023-02-25T22:27:28.734Z,98335.94
2023-02-25T22:32:31.726Z,98332.75
2023-02-25T22:37:35.254Z,98326.84
2023-02-25T22:42:39.579Z,98327.16
2023-02-25T22:47:43.166Z,98340.34
2023-02-25T22:52:46.092Z,98346.63
2023-02-25T22:57:50.328Z,98357.22
2023-02-25T23:02:53.287Z,98363.47
2023-02-25T23:07:56.251Z,98369.13
2023-02-25T23:13:02.311Z,98372.75
2023-02-25T23:18:08.598Z,98382.44
2023-02-25T23:23:17.383Z,98380.63
2023-02-25T23:28:21.695Z,98391.00
2023-02-25T23:33:24.624Z,98394.75
2023-02-25T23:38:28.409Z,98392.88
2023-02-25T23:43:32.912Z,98392.63
2023-02-25T23:48:35.767Z,98399.97
2023-02-25T23:53:38.667Z,98404.59
2023-02-25T23:58:42.946Z,98410.78
